Kelowna Airport
CYLW : now visible

Airfield :











YOU CAN JOIN US ON...

 
LOGIN :

Register | Disclaimer

   EN    FR    IT 

 









Legend :    VFR   Marginal VFR   IFR   Intensive IFR   Very Intensive IFR
Visi :
Ceiling :
>= 8 km
>= 3000ft
5 to 8 km
1000 to 3000 ft
1500m to 5 km
500 to 1000 ft
800 to 1500m
200 to 500 ft
< 800m
< 200 ft
Symbols :   Thunderstorms  Fog  Heavy snow  Heavy precipitations  Wind > 20 kt






- Airport Elevation : 1409 ft
- IATA code : YLW


CYLW - Kelowna

CURRENT METAR :
  • 241900Z AUTO VRB02KT 9SM CLR 17/04 A3000 RMK SLP163 DENSITY ALT 2000FT

EXPIRED METARs :
  • 241800Z AUTO 15004KT 110V200 9SM CLR 16/05 A3002 RMK SLP169 DENSITY ALT 1800FT
  • 241700Z AUTO 20003KT 170V260 9SM CLR 15/05 A3004 RMK SLP178 DENSITY ALT 1700FT

TAF TAF CYLW
Valid from the 24 at 19:00 until the 25 at 07:00 UTC


241840Z 2419/2507 VRB03KT P6SM FEW060 SCT200
BECMG 2420/2421 22010KT
FM250100 20010KT P6SM BKN080 BKN140 RMK FCST BASED ON AUTO OBS. NXT FCST BY 250100Z
CZVR FIR / North America



MET'MAP, your aeronautical weather chart ! - Copyright ORBIFLY December 2007 - Disclaimer

ORBIFLY MET'MAP TEAM :

Programming & Development : Alexandra Zaïnal
Original concept : Baudouin d'Aumeries
Technical & hardware support : Manuel Goepfert
Assistance : Marc-Olivier Méhu

Contact : metmap@orbifly.com




SOURCES & CREDITS :

   NOAA       Earth
Advisory